createdAt,value
2023-03-22T00:00:15.205Z,7.95
2023-03-22T00:02:41.771Z,7.97
2023-03-22T00:05:08.881Z,8.03
2023-03-22T00:07:35.305Z,7.91
2023-03-22T00:10:01.658Z,7.88
2023-03-22T00:12:28.074Z,7.90
2023-03-22T00:14:55.052Z,7.94
2023-03-22T00:17:22.992Z,7.94
2023-03-22T00:19:49.738Z,7.95
2023-03-22T00:22:16.173Z,8.01
2023-03-22T00:24:42.691Z,8.01
2023-03-22T00:27:09.082Z,8.05
2023-03-22T00:29:35.631Z,8.02
2023-03-22T00:32:02.718Z,8.02
2023-03-22T00:34:33.421Z,8.11
2023-03-22T00:37:00.025Z,8.11
2023-03-22T00:39:27.034Z,8.06
2023-03-22T00:41:53.584Z,8.04
2023-03-22T00:44:20.341Z,8.07
2023-03-22T00:46:46.818Z,8.13
2023-03-22T00:49:13.231Z,8.18
2023-03-22T00:51:39.647Z,8.18
2023-03-22T00:54:06.147Z,8.20
2023-03-22T00:56:33.824Z,8.25
2023-03-22T00:59:00.304Z,8.23
2023-03-22T01:01:26.821Z,8.28
2023-03-22T01:03:53.308Z,8.27
2023-03-22T01:06:19.818Z,8.34
2023-03-22T01:08:46.290Z,8.32
2023-03-22T01:11:12.825Z,8.35
2023-03-22T01:13:39.406Z,8.39
2023-03-22T01:16:06.961Z,8.37
2023-03-22T01:18:34.170Z,8.42
2023-03-22T01:21:00.688Z,8.40
2023-03-22T01:23:27.273Z,8.43
2023-03-22T01:25:53.659Z,8.46
2023-03-22T01:28:20.233Z,8.42
2023-03-22T01:30:46.725Z,8.45
2023-03-22T01:33:13.182Z,8.43
2023-03-22T01:35:39.746Z,8.41
2023-03-22T01:38:06.224Z,8.42
2023-03-22T01:40:33.405Z,8.47
2023-03-22T01:42:59.789Z,8.53
2023-03-22T01:45:37.480Z,8.54
2023-03-22T01:48:12.903Z,8.61
2023-03-22T01:50:42.839Z,8.62
2023-03-22T01:53:13.634Z,8.66
2023-03-22T01:55:41.559Z,8.70
2023-03-22T01:58:08.322Z,8.69
2023-03-22T02:00:34.794Z,8.76
2023-03-22T02:03:01.490Z,8.79
2023-03-22T02:05:28.358Z,8.85
2023-03-22T02:07:54.781Z,8.87
2023-03-22T02:10:26.259Z,8.93
2023-03-22T02:13:11.470Z,8.96
2023-03-22T02:15:56.019Z,8.94
2023-03-22T02:18:36.765Z,8.92
2023-03-22T02:21:19.857Z,8.94
2023-03-22T02:24:14.078Z,8.93
2023-03-22T02:27:22.115Z,8.97
2023-03-22T02:29:59.871Z,8.97
2023-03-22T02:32:37.573Z,9.00
2023-03-22T02:35:23.767Z,8.99
2023-03-22T02:37:59.316Z,9.01
2023-03-22T02:40:32.208Z,9.05
2023-03-22T02:43:13.666Z,9.06
2023-03-22T02:45:45.230Z,9.05
2023-03-22T02:48:30.236Z,9.07
2023-03-22T02:51:03.828Z,9.07
2023-03-22T02:53:40.670Z,9.05
2023-03-22T02:56:31.795Z,9.10
2023-03-22T02:59:01.528Z,9.15
2023-03-22T03:01:42.126Z,9.10
2023-03-22T03:04:14.239Z,9.05
2023-03-22T03:06:46.082Z,8.99
2023-03-22T03:09:17.996Z,8.91
2023-03-22T03:11:50.517Z,8.83
2023-03-22T03:14:34.992Z,8.68
2023-03-22T03:17:29.529Z,8.65
2023-03-22T03:20:01.147Z,8.59
2023-03-22T03:22:40.536Z,8.52
2023-03-22T03:25:22.845Z,8.51
2023-03-22T03:28:23.151Z,8.55
2023-03-22T03:31:15.983Z,8.57
2023-03-22T03:33:53.669Z,8.57
2023-03-22T03:36:21.821Z,8.65
2023-03-22T03:38:52.111Z,8.74
2023-03-22T03:41:23.754Z,8.81
2023-03-22T03:43:51.351Z,8.79
2023-03-22T03:46:17.790Z,8.80
2023-03-22T03:48:48.567Z,8.75
2023-03-22T03:51:15.257Z,8.78
2023-03-22T03:53:41.788Z,8.76
2023-03-22T03:56:09.100Z,8.77
2023-03-22T03:58:35.521Z,8.77
2023-03-22T04:01:03.939Z,8.78
2023-03-22T04:03:30.708Z,8.80
2023-03-22T04:05:57.131Z,8.82
2023-03-22T04:08:23.497Z,8.84
2023-03-22T04:10:51.766Z,8.82
2023-03-22T04:13:21.467Z,8.82
2023-03-22T04:15:52.578Z,8.85
2023-03-22T04:18:19.658Z,8.94
2023-03-22T04:20:46.770Z,8.92
2023-03-22T04:23:13.209Z,8.90
2023-03-22T04:25:39.633Z,8.91
2023-03-22T04:28:06.047Z,8.95
2023-03-22T04:30:36.278Z,8.98
2023-03-22T04:33:07.159Z,9.00
2023-03-22T04:35:36.444Z,8.98
2023-03-22T04:38:02.941Z,9.01
2023-03-22T04:40:35.220Z,9.01
2023-03-22T04:43:04.093Z,8.99
2023-03-22T04:45:32.477Z,9.01
2023-03-22T04:47:59.808Z,9.02
2023-03-22T04:50:28.159Z,9.02
2023-03-22T04:52:54.639Z,9.01
2023-03-22T04:55:21.222Z,9.02
2023-03-22T04:57:47.628Z,9.04
2023-03-22T05:00:15.580Z,9.00
2023-03-22T05:02:42.091Z,8.97
2023-03-22T05:05:08.691Z,8.99
2023-03-22T05:07:35.302Z,8.98
2023-03-22T05:10:01.859Z,8.93
2023-03-22T05:12:28.485Z,8.93
2023-03-22T05:14:54.945Z,8.98
2023-03-22T05:17:21.476Z,9.01
2023-03-22T05:19:48.096Z,9.04
2023-03-22T05:22:14.513Z,9.06
2023-03-22T05:24:41.051Z,9.02
2023-03-22T05:27:07.460Z,9.10
2023-03-22T05:29:36.702Z,9.14
2023-03-22T05:32:04.052Z,9.18
2023-03-22T05:34:35.634Z,9.13
2023-03-22T05:37:02.814Z,9.15
2023-03-22T05:39:29.504Z,9.15
2023-03-22T05:41:55.986Z,9.15
2023-03-22T05:44:22.427Z,9.13
2023-03-22T05:46:48.898Z,9.06
2023-03-22T05:49:15.421Z,9.05
2023-03-22T05:51:42.589Z,9.03
2023-03-22T05:54:09.675Z,9.05
2023-03-22T05:56:36.335Z,9.07
2023-03-22T05:59:04.509Z,9.05
2023-03-22T06:01:30.984Z,9.06
2023-03-22T06:03:57.509Z,9.03
2023-03-22T06:06:24.037Z,9.00
2023-03-22T06:08:50.477Z,8.99
2023-03-22T06:11:18.530Z,8.97
2023-03-22T06:13:44.960Z,8.99
2023-03-22T06:16:11.498Z,8.98
2023-03-22T06:18:38.014Z,8.96
2023-03-22T06:21:04.757Z,8.93
2023-03-22T06:23:31.250Z,8.92
2023-03-22T06:25:57.678Z,8.90
2023-03-22T06:28:26.522Z,8.83
2023-03-22T06:30:53.058Z,8.83
2023-03-22T06:33:19.540Z,8.84
2023-03-22T06:35:45.996Z,8.83
2023-03-22T06:38:13.335Z,8.82
2023-03-22T06:40:40.066Z,8.81
2023-03-22T06:43:07.441Z,8.80
2023-03-22T06:45:34.107Z,8.79
2023-03-22T06:48:01.161Z,8.79
2023-03-22T06:50:28.795Z,8.78
2023-03-22T06:52:55.491Z,8.78
2023-03-22T06:55:22.213Z,8.75
2023-03-22T06:57:48.703Z,8.71
2023-03-22T07:00:16.026Z,8.70
2023-03-22T07:02:42.605Z,8.68
2023-03-22T07:05:09.338Z,8.70
2023-03-22T07:07:35.777Z,8.77
2023-03-22T07:10:02.146Z,8.78
2023-03-22T07:12:28.586Z,8.81
2023-03-22T07:14:55.048Z,8.84
2023-03-22T07:17:21.500Z,8.88
2023-03-22T07:19:47.927Z,8.93
2023-03-22T07:22:14.409Z,8.98
2023-03-22T07:24:53.855Z,8.99
2023-03-22T07:27:22.902Z,9.06
2023-03-22T07:29:49.331Z,9.11
2023-03-22T07:32:16.331Z,9.16
2023-03-22T07:34:42.829Z,9.15
2023-03-22T07:37:09.575Z,9.17
2023-03-22T07:39:36.298Z,9.18
2023-03-22T07:42:03.136Z,9.14
2023-03-22T07:44:29.562Z,9.06
2023-03-22T07:46:56.438Z,8.99
2023-03-22T07:49:22.907Z,8.91
2023-03-22T07:51:49.370Z,8.84
2023-03-22T07:54:30.612Z,8.77
2023-03-22T07:56:59.532Z,8.75
2023-03-22T07:59:26.332Z,8.73
2023-03-22T08:01:52.772Z,8.68
2023-03-22T08:04:20.933Z,8.65
2023-03-22T08:06:47.428Z,8.61
2023-03-22T08:09:13.924Z,8.57
2023-03-22T08:11:40.468Z,8.59
2023-03-22T08:14:06.923Z,8.59
2023-03-22T08:16:33.405Z,8.56
2023-03-22T08:18:59.872Z,8.53
2023-03-22T08:21:27.390Z,8.56
2023-03-22T08:23:54.018Z,8.53
2023-03-22T08:26:20.561Z,8.53
2023-03-22T08:28:46.940Z,8.50
2023-03-22T08:31:17.496Z,8.52
2023-03-22T08:33:45.112Z,8.51
2023-03-22T08:36:16.334Z,8.49
2023-03-22T08:38:44.812Z,8.48
2023-03-22T08:41:15.823Z,8.49
2023-03-22T08:43:42.868Z,8.55
2023-03-22T08:46:09.478Z,8.53
2023-03-22T08:48:37.814Z,8.55
2023-03-22T08:51:06.421Z,8.52
2023-03-22T08:53:32.917Z,8.48
2023-03-22T08:56:01.731Z,8.47
2023-03-22T08:58:28.433Z,8.47
2023-03-22T09:00:55.001Z,8.43
2023-03-22T09:03:22.859Z,8.45
2023-03-22T09:05:49.326Z,8.48
2023-03-22T09:08:19.639Z,8.46
2023-03-22T09:10:51.150Z,8.49
2023-03-22T09:13:18.332Z,8.47
2023-03-22T09:15:45.231Z,8.53
2023-03-22T09:18:11.965Z,8.55
2023-03-22T09:20:39.019Z,8.60
2023-03-22T09:23:05.823Z,8.59
2023-03-22T09:25:32.750Z,8.59
2023-03-22T09:27:59.132Z,8.55
2023-03-22T09:30:25.544Z,8.52
2023-03-22T09:32:52.069Z,8.49
2023-03-22T09:35:18.695Z,8.49
2023-03-22T09:37:45.631Z,8.52
2023-03-22T09:40:13.291Z,8.52
2023-03-22T09:42:46.330Z,8.58
2023-03-22T09:45:32.114Z,8.60
2023-03-22T09:47:59.702Z,8.57
2023-03-22T09:50:30.335Z,8.57
2023-03-22T09:52:58.039Z,8.59
2023-03-22T09:55:45.971Z,8.61
2023-03-22T09:58:30.744Z,8.64
2023-03-22T10:01:02.733Z,8.65
2023-03-22T10:03:35.385Z,8.68
2023-03-22T10:06:09.263Z,8.74
2023-03-22T10:08:35.620Z,8.73
2023-03-22T10:11:02.467Z,8.79
2023-03-22T10:13:40.507Z,8.78
2023-03-22T10:16:11.991Z,8.72
2023-03-22T10:18:43.464Z,8.75
2023-03-22T10:21:12.330Z,8.73
2023-03-22T10:23:49.596Z,8.69
2023-03-22T10:26:48.636Z,8.78
2023-03-22T10:29:38.921Z,8.77
2023-03-22T10:32:22.519Z,8.82
2023-03-22T10:34:49.448Z,8.85
2023-03-22T10:37:34.490Z,8.89
2023-03-22T10:40:06.766Z,8.95
2023-03-22T10:42:36.742Z,9.11
2023-03-22T10:45:14.779Z,9.23
2023-03-22T10:47:58.038Z,9.40
2023-03-22T10:50:30.247Z,9.45
2023-03-22T10:52:59.556Z,9.60
2023-03-22T10:55:26.428Z,9.66
2023-03-22T10:58:15.655Z,9.78
2023-03-22T11:00:48.246Z,9.78
2023-03-22T11:03:41.561Z,9.70
2023-03-22T11:06:17.440Z,9.72
2023-03-22T11:09:01.679Z,9.67
2023-03-22T11:11:34.635Z,9.66
2023-03-22T11:14:22.837Z,9.62
2023-03-22T11:17:06.196Z,9.52
2023-03-22T11:19:38.297Z,9.54
2023-03-22T11:22:15.775Z,9.47
2023-03-22T11:24:42.339Z,9.43
2023-03-22T11:27:26.748Z,9.41
2023-03-22T11:29:58.644Z,9.37
2023-03-22T11:32:36.363Z,9.36
2023-03-22T11:35:11.695Z,9.37
2023-03-22T11:37:49.828Z,9.27
2023-03-22T11:40:27.780Z,9.23
2023-03-22T11:42:56.904Z,9.23
2023-03-22T11:45:30.717Z,9.25
2023-03-22T11:48:07.448Z,9.34
2023-03-22T11:50:37.141Z,9.32
2023-03-22T11:53:06.784Z,9.31
2023-03-22T11:55:36.381Z,9.33
2023-03-22T11:58:04.431Z,9.36
2023-03-22T12:00:37.145Z,9.42
2023-03-22T12:03:10.672Z,9.44
2023-03-22T12:05:41.463Z,9.49
2023-03-22T12:08:30.980Z,9.54
2023-03-22T12:11:12.023Z,9.58
2023-03-22T12:14:00.331Z,9.59
2023-03-22T12:16:32.934Z,9.64
2023-03-22T12:19:12.424Z,9.61
2023-03-22T12:21:39.684Z,9.58
2023-03-22T12:24:18.646Z,9.55
2023-03-22T12:26:45.886Z,9.57
2023-03-22T12:29:18.741Z,9.57
2023-03-22T12:32:15.860Z,9.57
2023-03-22T12:34:48.142Z,9.57
2023-03-22T12:37:19.356Z,9.61
2023-03-22T12:40:06.142Z,9.62
2023-03-22T12:42:47.607Z,9.60
2023-03-22T12:45:24.911Z,9.58
2023-03-22T12:47:57.979Z,9.56
2023-03-22T12:50:33.320Z,9.57
2023-03-22T12:53:02.309Z,9.61
2023-03-22T12:55:39.040Z,9.66
2023-03-22T12:58:07.539Z,9.70
2023-03-22T13:00:53.564Z,9.65
2023-03-22T13:03:29.867Z,9.61
2023-03-22T13:06:06.760Z,9.63
2023-03-22T13:09:09.767Z,9.63
2023-03-22T13:11:36.515Z,9.71
2023-03-22T13:14:02.967Z,9.72
2023-03-22T13:16:48.875Z,9.72
2023-03-22T13:19:36.410Z,9.78
2023-03-22T13:22:41.566Z,9.85
2023-03-22T13:25:12.890Z,9.92
2023-03-22T13:27:45.145Z,9.99
2023-03-22T13:30:36.997Z,10.05
2023-03-22T13:33:09.723Z,10.19
2023-03-22T13:35:54.233Z,10.25
2023-03-22T13:38:27.225Z,10.22
2023-03-22T13:40:59.958Z,10.17
2023-03-22T13:43:33.223Z,10.14
2023-03-22T13:46:19.886Z,10.21
2023-03-22T13:48:46.858Z,10.20
2023-03-22T13:51:22.606Z,10.27
2023-03-22T13:53:56.828Z,10.23
2023-03-22T13:56:44.492Z,10.11
2023-03-22T13:59:12.534Z,10.05
2023-03-22T14:01:47.584Z,9.96
2023-03-22T14:04:22.561Z,9.90
2023-03-22T14:07:11.763Z,9.84
2023-03-22T14:09:51.504Z,9.82
2023-03-22T14:12:36.975Z,9.81
2023-03-22T14:15:06.904Z,9.79
2023-03-22T14:17:43.820Z,9.86
2023-03-22T14:20:35.774Z,9.97
